sensor_id;sensor_type;location;lat;lon;timestamp;P1;durP1;ratioP1;P2;durP2;ratioP2
46745;SDS011;32493;50.514;9.678;2023-04-29T00:00:33;19.70;;;10.90;;
46745;SDS011;32493;50.514;9.678;2023-04-29T00:02:44;17.83;;;10.82;;
46745;SDS011;32493;50.514;9.678;2023-04-29T00:04:50;157.23;;;13.30;;
46745;SDS011;32493;50.514;9.678;2023-04-29T00:06:58;349.63;;;21.48;;
46745;SDS011;32493;50.514;9.678;2023-04-29T00:09:07;12.68;;;8.18;;
46745;SDS011;32493;50.514;9.678;2023-04-29T00:11:14;22.83;;;8.45;;
46745;SDS011;32493;50.514;9.678;2023-04-29T00:13:19;14.18;;;8.88;;
46745;SDS011;32493;50.514;9.678;2023-04-29T00:15:25;13.25;;;8.65;;
46745;SDS011;32493;50.514;9.678;2023-04-29T00:17:30;15.55;;;9.27;;
46745;SDS011;32493;50.514;9.678;2023-04-29T00:19:37;15.32;;;10.20;;
46745;SDS011;32493;50.514;9.678;2023-04-29T00:21:43;16.48;;;9.80;;
46745;SDS011;32493;50.514;9.678;2023-04-29T00:23:48;22.83;;;11.00;;
46745;SDS011;32493;50.514;9.678;2023-04-29T00:25:57;19.92;;;10.15;;
46745;SDS011;32493;50.514;9.678;2023-04-29T00:28:04;14.50;;;8.80;;
46745;SDS011;32493;50.514;9.678;2023-04-29T00:30:10;11.35;;;8.27;;
46745;SDS011;32493;50.514;9.678;2023-04-29T00:32:18;9.82;;;7.40;;
46745;SDS011;32493;50.514;9.678;2023-04-29T00:34:27;11.43;;;6.95;;
46745;SDS011;32493;50.514;9.678;2023-04-29T00:36:44;13.48;;;8.23;;
46745;SDS011;32493;50.514;9.678;2023-04-29T00:38:51;13.18;;;8.20;;
46745;SDS011;32493;50.514;9.678;2023-04-29T00:41:04;13.65;;;8.35;;
46745;SDS011;32493;50.514;9.678;2023-04-29T00:43:11;13.95;;;8.10;;
46745;SDS011;32493;50.514;9.678;2023-04-29T00:45:17;14.00;;;7.95;;
46745;SDS011;32493;50.514;9.678;2023-04-29T00:47:23;13.15;;;7.72;;
46745;SDS011;32493;50.514;9.678;2023-04-29T00:49:28;17.10;;;9.18;;
46745;SDS011;32493;50.514;9.678;2023-04-29T00:51:37;11.20;;;7.18;;
46745;SDS011;32493;50.514;9.678;2023-04-29T00:53:51;86.22;;;9.85;;
46745;SDS011;32493;50.514;9.678;2023-04-29T00:55:57;20.00;;;10.30;;
46745;SDS011;32493;50.514;9.678;2023-04-29T01:00:13;17.70;;;9.02;;
46745;SDS011;32493;50.514;9.678;2023-04-29T01:02:20;18.20;;;9.10;;
46745;SDS011;32493;50.514;9.678;2023-04-29T01:04:34;15.07;;;8.90;;
46745;SDS011;32493;50.514;9.678;2023-04-29T01:06:46;14.82;;;9.57;;
46745;SDS011;32493;50.514;9.678;2023-04-29T01:09:08;19.75;;;8.63;;
46745;SDS011;32493;50.514;9.678;2023-04-29T01:11:33;15.52;;;8.57;;
46745;SDS011;32493;50.514;9.678;2023-04-29T01:13:50;17.58;;;9.60;;
46745;SDS011;32493;50.514;9.678;2023-04-29T01:16:10;19.63;;;10.65;;
46745;SDS011;32493;50.514;9.678;2023-04-29T01:18:32;18.00;;;9.40;;
46745;SDS011;32493;50.514;9.678;2023-04-29T01:20:43;11.20;;;8.02;;
46745;SDS011;32493;50.514;9.678;2023-04-29T01:22:50;15.45;;;9.88;;
46745;SDS011;32493;50.514;9.678;2023-04-29T01:24:58;17.52;;;9.23;;
46745;SDS011;32493;50.514;9.678;2023-04-29T01:27:10;14.45;;;9.23;;
46745;SDS011;32493;50.514;9.678;2023-04-29T01:29:32;16.25;;;9.88;;
46745;SDS011;32493;50.514;9.678;2023-04-29T01:31:53;16.02;;;9.63;;
46745;SDS011;32493;50.514;9.678;2023-04-29T01:34:13;19.83;;;10.73;;
46745;SDS011;32493;50.514;9.678;2023-04-29T01:36:42;15.02;;;9.30;;
46745;SDS011;32493;50.514;9.678;2023-04-29T01:38:59;14.20;;;7.38;;
46745;SDS011;32493;50.514;9.678;2023-04-29T01:41:41;15.45;;;8.38;;
46745;SDS011;32493;50.514;9.678;2023-04-29T01:43:57;14.30;;;8.40;;
46745;SDS011;32493;50.514;9.678;2023-04-29T01:46:07;12.48;;;6.80;;
46745;SDS011;32493;50.514;9.678;2023-04-29T01:48:14;13.80;;;7.47;;
46745;SDS011;32493;50.514;9.678;2023-04-29T01:50:20;9.95;;;7.18;;
46745;SDS011;32493;50.514;9.678;2023-04-29T01:52:27;11.50;;;7.28;;
46745;SDS011;32493;50.514;9.678;2023-04-29T01:54:35;13.75;;;7.68;;
46745;SDS011;32493;50.514;9.678;2023-04-29T01:56:44;12.15;;;7.80;;
46745;SDS011;32493;50.514;9.678;2023-04-29T01:59:02;15.70;;;8.23;;
46745;SDS011;32493;50.514;9.678;2023-04-29T02:01:35;11.60;;;7.25;;
46745;SDS011;32493;50.514;9.678;2023-04-29T02:03:51;13.95;;;7.95;;
46745;SDS011;32493;50.514;9.678;2023-04-29T02:05:57;11.48;;;7.20;;
46745;SDS011;32493;50.514;9.678;2023-04-29T02:08:04;11.38;;;7.78;;
46745;SDS011;32493;50.514;9.678;2023-04-29T02:10:15;13.82;;;7.35;;
46745;SDS011;32493;50.514;9.678;2023-04-29T02:12:34;11.63;;;7.60;;
46745;SDS011;32493;50.514;9.678;2023-04-29T02:14:43;13.98;;;7.90;;
46745;SDS011;32493;50.514;9.678;2023-04-29T02:16:48;11.15;;;8.13;;
46745;SDS011;32493;50.514;9.678;2023-04-29T02:18:54;11.68;;;7.53;;
46745;SDS011;32493;50.514;9.678;2023-04-29T02:21:03;13.00;;;7.30;;
46745;SDS011;32493;50.514;9.678;2023-04-29T02:23:14;9.02;;;6.50;;
46745;SDS011;32493;50.514;9.678;2023-04-29T02:25:20;10.70;;;6.82;;
46745;SDS011;32493;50.514;9.678;2023-04-29T02:27:28;11.90;;;7.60;;
46745;SDS011;32493;50.514;9.678;2023-04-29T02:29:37;14.55;;;7.20;;
46745;SDS011;32493;50.514;9.678;2023-04-29T02:31:44;14.45;;;8.00;;
46745;SDS011;32493;50.514;9.678;2023-04-29T02:33:50;12.75;;;7.47;;
46745;SDS011;32493;50.514;9.678;2023-04-29T02:35:55;14.98;;;8.07;;
46745;SDS011;32493;50.514;9.678;2023-04-29T02:38:00;16.10;;;7.40;;
46745;SDS011;32493;50.514;9.678;2023-04-29T02:40:11;16.05;;;7.32;;
46745;SDS011;32493;50.514;9.678;2023-04-29T02:44:24;14.32;;;8.38;;
46745;SDS011;32493;50.514;9.678;2023-04-29T02:46:32;11.75;;;8.18;;
46745;SDS011;32493;50.514;9.678;2023-04-29T02:48:40;16.08;;;8.23;;
46745;SDS011;32493;50.514;9.678;2023-04-29T02:52:53;13.43;;;7.93;;
46745;SDS011;32493;50.514;9.678;2023-04-29T02:55:07;13.50;;;7.53;;
46745;SDS011;32493;50.514;9.678;2023-04-29T02:57:13;12.32;;;7.53;;
46745;SDS011;32493;50.514;9.678;2023-04-29T02:59:20;14.15;;;7.65;;
46745;SDS011;32493;50.514;9.678;2023-04-29T03:01:26;12.70;;;7.70;;
46745;SDS011;32493;50.514;9.678;2023-04-29T03:03:39;11.38;;;7.47;;
46745;SDS011;32493;50.514;9.678;2023-04-29T03:05:51;12.98;;;7.55;;
46745;SDS011;32493;50.514;9.678;2023-04-29T03:07:56;9.95;;;7.28;;
46745;SDS011;32493;50.514;9.678;2023-04-29T03:10:04;13.23;;;7.78;;
46745;SDS011;32493;50.514;9.678;2023-04-29T03:12:14;12.07;;;7.68;;
46745;SDS011;32493;50.514;9.678;2023-04-29T03:14:20;11.07;;;6.47;;
46745;SDS011;32493;50.514;9.678;2023-04-29T03:16:27;12.40;;;7.87;;
46745;SDS011;32493;50.514;9.678;2023-04-29T03:18:37;13.50;;;7.82;;
46745;SDS011;32493;50.514;9.678;2023-04-29T03:20:45;12.55;;;7.95;;
46745;SDS011;32493;50.514;9.678;2023-04-29T03:22:52;12.25;;;7.90;;
46745;SDS011;32493;50.514;9.678;2023-04-29T03:25:00;12.88;;;7.70;;
46745;SDS011;32493;50.514;9.678;2023-04-29T03:27:07;11.70;;;8.05;;
46745;SDS011;32493;50.514;9.678;2023-04-29T03:29:14;13.20;;;8.00;;
46745;SDS011;32493;50.514;9.678;2023-04-29T03:31:21;13.20;;;7.88;;
46745;SDS011;32493;50.514;9.678;2023-04-29T03:33:27;14.68;;;8.18;;
46745;SDS011;32493;50.514;9.678;2023-04-29T03:35:36;11.70;;;8.38;;
46745;SDS011;32493;50.514;9.678;2023-04-29T03:40:11;12.10;;;7.88;;
46745;SDS011;32493;50.514;9.678;2023-04-29T03:44:22;12.50;;;8.13;;
46745;SDS011;32493;50.514;9.678;2023-04-29T03:46:31;10.95;;;7.47;;
46745;SDS011;32493;50.514;9.678;2023-04-29T03:48:37;10.80;;;7.75;;
46745;SDS011;32493;50.514;9.678;2023-04-29T03:50:46;12.70;;;7.80;;
46745;SDS011;32493;50.514;9.678;2023-04-29T03:52:52;16.42;;;8.38;;
46745;SDS011;32493;50.514;9.678;2023-04-29T03:54:58;12.40;;;8.23;;
46745;SDS011;32493;50.514;9.678;2023-04-29T03:57:05;13.70;;;8.17;;
46745;SDS011;32493;50.514;9.678;2023-04-29T03:59:15;12.23;;;7.85;;
46745;SDS011;32493;50.514;9.678;2023-04-29T04:01:22;11.57;;;7.68;;
46745;SDS011;32493;50.514;9.678;2023-04-29T04:03:30;13.75;;;7.97;;
46745;SDS011;32493;50.514;9.678;2023-04-29T04:05:36;12.50;;;7.85;;
46745;SDS011;32493;50.514;9.678;2023-04-29T04:07:50;15.63;;;8.43;;
46745;SDS011;32493;50.514;9.678;2023-04-29T04:10:03;15.18;;;8.82;;
46745;SDS011;32493;50.514;9.678;2023-04-29T04:12:16;13.25;;;7.80;;
46745;SDS011;32493;50.514;9.678;2023-04-29T04:14:39;14.15;;;8.35;;
46745;SDS011;32493;50.514;9.678;2023-04-29T04:16:49;12.40;;;8.73;;
46745;SDS011;32493;50.514;9.678;2023-04-29T04:18:57;13.88;;;8.82;;
46745;SDS011;32493;50.514;9.678;2023-04-29T04:21:09;13.65;;;9.35;;
46745;SDS011;32493;50.514;9.678;2023-04-29T04:23:31;12.90;;;8.73;;
46745;SDS011;32493;50.514;9.678;2023-04-29T04:25:45;12.52;;;8.35;;
46745;SDS011;32493;50.514;9.678;2023-04-29T04:28:19;13.93;;;8.85;;
46745;SDS011;32493;50.514;9.678;2023-04-29T04:30:40;15.60;;;9.23;;
46745;SDS011;32493;50.514;9.678;2023-04-29T04:32:53;14.48;;;9.73;;
46745;SDS011;32493;50.514;9.678;2023-04-29T04:35:02;13.77;;;9.10;;
46745;SDS011;32493;50.514;9.678;2023-04-29T04:37:14;14.55;;;9.05;;
46745;SDS011;32493;50.514;9.678;2023-04-29T04:39:28;13.13;;;8.93;;
46745;SDS011;32493;50.514;9.678;2023-04-29T04:41:47;12.05;;;7.88;;
46745;SDS011;32493;50.514;9.678;2023-04-29T04:43:55;7.55;;;4.78;;
46745;SDS011;32493;50.514;9.678;2023-04-29T04:46:13;13.27;;;7.32;;
46745;SDS011;32493;50.514;9.678;2023-04-29T04:48:38;12.38;;;7.80;;
46745;SDS011;32493;50.514;9.678;2023-04-29T04:50:47;13.02;;;8.00;;
46745;SDS011;32493;50.514;9.678;2023-04-29T04:52:59;14.38;;;8.77;;
46745;SDS011;32493;50.514;9.678;2023-04-29T04:55:27;15.60;;;7.97;;
46745;SDS011;32493;50.514;9.678;2023-04-29T04:57:34;15.15;;;9.23;;
46745;SDS011;32493;50.514;9.678;2023-04-29T04:59:40;14.45;;;9.00;;
46745;SDS011;32493;50.514;9.678;2023-04-29T05:01:49;15.38;;;8.75;;
46745;SDS011;32493;50.514;9.678;2023-04-29T05:03:57;12.23;;;7.25;;
46745;SDS011;32493;50.514;9.678;2023-04-29T05:06:04;13.73;;;7.35;;
46745;SDS011;32493;50.514;9.678;2023-04-29T05:08:12;11.20;;;6.90;;
46745;SDS011;32493;50.514;9.678;2023-04-29T05:12:33;11.45;;;7.70;;
46745;SDS011;32493;50.514;9.678;2023-04-29T05:14:40;13.23;;;7.97;;
46745;SDS011;32493;50.514;9.678;2023-04-29T05:16:49;13.18;;;7.75;;
46745;SDS011;32493;50.514;9.678;2023-04-29T05:18:54;13.50;;;8.30;;
46745;SDS011;32493;50.514;9.678;2023-04-29T05:21:04;15.23;;;8.82;;
46745;SDS011;32493;50.514;9.678;2023-04-29T05:23:12;12.77;;;8.80;;
46745;SDS011;32493;50.514;9.678;2023-04-29T05:25:20;14.80;;;8.88;;
46745;SDS011;32493;50.514;9.678;2023-04-29T05:27:28;16.50;;;9.38;;
46745;SDS011;32493;50.514;9.678;2023-04-29T05:29:36;12.40;;;8.25;;
46745;SDS011;32493;50.514;9.678;2023-04-29T05:31:42;14.13;;;9.00;;
46745;SDS011;32493;50.514;9.678;2023-04-29T05:33:48;17.00;;;9.93;;
46745;SDS011;32493;50.514;9.678;2023-04-29T05:35:54;16.98;;;9.55;;
46745;SDS011;32493;50.514;9.678;2023-04-29T05:37:59;17.00;;;10.23;;
46745;SDS011;32493;50.514;9.678;2023-04-29T05:40:09;15.38;;;10.02;;
46745;SDS011;32493;50.514;9.678;2023-04-29T05:42:16;19.58;;;10.60;;
46745;SDS011;32493;50.514;9.678;2023-04-29T05:44:24;17.05;;;10.63;;
46745;SDS011;32493;50.514;9.678;2023-04-29T05:46:32;16.52;;;9.30;;
46745;SDS011;32493;50.514;9.678;2023-04-29T05:48:37;16.65;;;9.50;;
46745;SDS011;32493;50.514;9.678;2023-04-29T05:50:45;17.80;;;10.40;;
46745;SDS011;32493;50.514;9.678;2023-04-29T05:52:51;15.35;;;9.85;;
46745;SDS011;32493;50.514;9.678;2023-04-29T05:54:59;14.75;;;9.45;;
46745;SDS011;32493;50.514;9.678;2023-04-29T05:57:04;16.60;;;10.32;;
46745;SDS011;32493;50.514;9.678;2023-04-29T05:59:13;16.40;;;10.88;;
46745;SDS011;32493;50.514;9.678;2023-04-29T06:01:27;18.45;;;11.10;;
46745;SDS011;32493;50.514;9.678;2023-04-29T06:03:36;18.33;;;10.18;;
46745;SDS011;32493;50.514;9.678;2023-04-29T06:05:57;15.57;;;10.05;;
46745;SDS011;32493;50.514;9.678;2023-04-29T06:08:10;17.70;;;10.55;;
46745;SDS011;32493;50.514;9.678;2023-04-29T06:10:39;14.88;;;9.32;;
46745;SDS011;32493;50.514;9.678;2023-04-29T06:14:52;14.15;;;8.18;;
46745;SDS011;32493;50.514;9.678;2023-04-29T06:17:00;16.20;;;9.88;;
46745;SDS011;32493;50.514;9.678;2023-04-29T06:19:05;16.50;;;10.23;;
46745;SDS011;32493;50.514;9.678;2023-04-29T06:21:13;14.38;;;9.75;;
46745;SDS011;32493;50.514;9.678;2023-04-29T06:23:21;13.30;;;8.90;;
46745;SDS011;32493;50.514;9.678;2023-04-29T06:25:27;15.15;;;9.40;;
46745;SDS011;32493;50.514;9.678;2023-04-29T06:27:36;15.05;;;8.90;;
46745;SDS011;32493;50.514;9.678;2023-04-29T06:29:45;16.05;;;9.15;;
46745;SDS011;32493;50.514;9.678;2023-04-29T06:31:52;14.43;;;8.73;;
46745;SDS011;32493;50.514;9.678;2023-04-29T06:34:03;13.48;;;8.60;;
46745;SDS011;32493;50.514;9.678;2023-04-29T06:36:14;14.23;;;8.88;;
46745;SDS011;32493;50.514;9.678;2023-04-29T06:38:48;14.55;;;8.43;;
46745;SDS011;32493;50.514;9.678;2023-04-29T06:41:13;14.05;;;9.00;;
46745;SDS011;32493;50.514;9.678;2023-04-29T06:43:34;13.18;;;8.18;;
46745;SDS011;32493;50.514;9.678;2023-04-29T06:46:07;14.05;;;8.70;;
46745;SDS011;32493;50.514;9.678;2023-04-29T06:48:28;13.27;;;7.93;;
46745;SDS011;32493;50.514;9.678;2023-04-29T06:50:39;16.05;;;9.25;;
46745;SDS011;32493;50.514;9.678;2023-04-29T06:52:56;14.00;;;8.45;;
46745;SDS011;32493;50.514;9.678;2023-04-29T06:55:05;13.55;;;7.82;;
46745;SDS011;32493;50.514;9.678;2023-04-29T06:57:16;14.80;;;8.35;;
46745;SDS011;32493;50.514;9.678;2023-04-29T06:59:23;13.32;;;8.38;;
46745;SDS011;32493;50.514;9.678;2023-04-29T07:01:30;12.52;;;7.70;;
46745;SDS011;32493;50.514;9.678;2023-04-29T07:03:38;14.82;;;8.90;;
46745;SDS011;32493;50.514;9.678;2023-04-29T07:05:48;13.90;;;8.90;;
46745;SDS011;32493;50.514;9.678;2023-04-29T07:07:56;13.63;;;7.93;;
46745;SDS011;32493;50.514;9.678;2023-04-29T07:10:04;11.88;;;7.13;;
46745;SDS011;32493;50.514;9.678;2023-04-29T07:12:11;11.18;;;7.45;;
46745;SDS011;32493;50.514;9.678;2023-04-29T07:14:21;10.50;;;7.38;;
46745;SDS011;32493;50.514;9.678;2023-04-29T07:16:28;12.57;;;7.65;;
46745;SDS011;32493;50.514;9.678;2023-04-29T07:18:34;12.25;;;7.30;;
46745;SDS011;32493;50.514;9.678;2023-04-29T07:20:44;10.65;;;6.47;;
46745;SDS011;32493;50.514;9.678;2023-04-29T07:23:01;11.57;;;6.32;;
46745;SDS011;32493;50.514;9.678;2023-04-29T07:25:06;10.70;;;6.75;;
46745;SDS011;32493;50.514;9.678;2023-04-29T07:27:12;10.38;;;6.45;;
46745;SDS011;32493;50.514;9.678;2023-04-29T07:29:21;11.75;;;6.68;;
46745;SDS011;32493;50.514;9.678;2023-04-29T07:31:28;9.50;;;6.60;;
46745;SDS011;32493;50.514;9.678;2023-04-29T07:33:39;10.07;;;5.75;;
46745;SDS011;32493;50.514;9.678;2023-04-29T07:35:51;10.13;;;6.35;;
46745;SDS011;32493;50.514;9.678;2023-04-29T07:37:58;9.90;;;6.53;;
46745;SDS011;32493;50.514;9.678;2023-04-29T07:40:08;9.50;;;6.63;;
46745;SDS011;32493;50.514;9.678;2023-04-29T07:42:13;12.60;;;6.45;;
46745;SDS011;32493;50.514;9.678;2023-04-29T07:44:19;9.35;;;5.97;;
46745;SDS011;32493;50.514;9.678;2023-04-29T07:46:27;11.20;;;6.13;;
46745;SDS011;32493;50.514;9.678;2023-04-29T07:48:35;9.93;;;5.93;;
46745;SDS011;32493;50.514;9.678;2023-04-29T07:50:42;11.05;;;6.13;;
46745;SDS011;32493;50.514;9.678;2023-04-29T07:52:54;9.15;;;5.63;;
46745;SDS011;32493;50.514;9.678;2023-04-29T07:55:02;8.10;;;5.32;;
46745;SDS011;32493;50.514;9.678;2023-04-29T07:57:10;8.43;;;5.25;;
46745;SDS011;32493;50.514;9.678;2023-04-29T07:59:15;8.18;;;5.13;;
46745;SDS011;32493;50.514;9.678;2023-04-29T08:01:21;8.75;;;5.55;;
46745;SDS011;32493;50.514;9.678;2023-04-29T08:03:31;9.80;;;5.45;;
46745;SDS011;32493;50.514;9.678;2023-04-29T08:05:46;8.15;;;4.97;;
46745;SDS011;32493;50.514;9.678;2023-04-29T08:07:58;7.68;;;5.32;;
46745;SDS011;32493;50.514;9.678;2023-04-29T08:10:03;8.07;;;5.18;;
46745;SDS011;32493;50.514;9.678;2023-04-29T08:12:11;7.85;;;5.05;;
46745;SDS011;32493;50.514;9.678;2023-04-29T08:14:18;10.77;;;6.10;;
46745;SDS011;32493;50.514;9.678;2023-04-29T08:16:25;7.70;;;5.13;;
46745;SDS011;32493;50.514;9.678;2023-04-29T08:18:31;9.25;;;5.72;;
46745;SDS011;32493;50.514;9.678;2023-04-29T08:20:37;8.63;;;5.43;;
46745;SDS011;32493;50.514;9.678;2023-04-29T08:22:47;10.63;;;5.63;;
46745;SDS011;32493;50.514;9.678;2023-04-29T08:24:57;10.48;;;5.50;;
46745;SDS011;32493;50.514;9.678;2023-04-29T08:27:03;9.45;;;5.28;;
46745;SDS011;32493;50.514;9.678;2023-04-29T08:29:09;8.35;;;5.53;;
46745;SDS011;32493;50.514;9.678;2023-04-29T08:31:17;10.27;;;6.47;;
46745;SDS011;32493;50.514;9.678;2023-04-29T08:33:24;11.80;;;7.32;;
46745;SDS011;32493;50.514;9.678;2023-04-29T08:35:32;9.40;;;5.13;;
46745;SDS011;32493;50.514;9.678;2023-04-29T08:37:43;6.25;;;4.10;;
46745;SDS011;32493;50.514;9.678;2023-04-29T08:39:49;5.28;;;3.67;;
46745;SDS011;32493;50.514;9.678;2023-04-29T08:42:00;6.60;;;3.83;;
46745;SDS011;32493;50.514;9.678;2023-04-29T08:44:11;5.15;;;3.70;;
46745;SDS011;32493;50.514;9.678;2023-04-29T08:46:17;7.22;;;4.25;;
46745;SDS011;32493;50.514;9.678;2023-04-29T08:48:24;6.30;;;4.50;;
46745;SDS011;32493;50.514;9.678;2023-04-29T08:50:32;7.00;;;4.20;;
46745;SDS011;32493;50.514;9.678;2023-04-29T08:52:46;6.60;;;3.92;;
46745;SDS011;32493;50.514;9.678;2023-04-29T08:54:55;6.43;;;4.35;;
46745;SDS011;32493;50.514;9.678;2023-04-29T08:59:15;7.63;;;4.10;;
46745;SDS011;32493;50.514;9.678;2023-04-29T09:01:24;6.25;;;4.20;;
46745;SDS011;32493;50.514;9.678;2023-04-29T09:03:41;6.07;;;3.92;;
46745;SDS011;32493;50.514;9.678;2023-04-29T09:05:57;7.63;;;4.20;;
46745;SDS011;32493;50.514;9.678;2023-04-29T09:10:10;5.30;;;3.45;;
46745;SDS011;32493;50.514;9.678;2023-04-29T09:12:19;6.30;;;3.75;;
46745;SDS011;32493;50.514;9.678;2023-04-29T09:14:26;5.68;;;3.85;;
46745;SDS011;32493;50.514;9.678;2023-04-29T09:16:35;5.40;;;3.55;;
46745;SDS011;32493;50.514;9.678;2023-04-29T09:18:43;7.07;;;4.38;;
46745;SDS011;32493;50.514;9.678;2023-04-29T09:20:51;5.70;;;3.90;;
46745;SDS011;32493;50.514;9.678;2023-04-29T09:22:57;6.05;;;3.67;;
46745;SDS011;32493;50.514;9.678;2023-04-29T09:25:14;7.00;;;4.30;;
46745;SDS011;32493;50.514;9.678;2023-04-29T09:27:28;5.97;;;3.90;;
46745;SDS011;32493;50.514;9.678;2023-04-29T09:29:35;7.13;;;4.47;;
46745;SDS011;32493;50.514;9.678;2023-04-29T09:31:43;9.07;;;4.68;;
46745;SDS011;32493;50.514;9.678;2023-04-29T09:33:54;7.95;;;4.55;;
46745;SDS011;32493;50.514;9.678;2023-04-29T09:36:01;6.40;;;4.20;;
46745;SDS011;32493;50.514;9.678;2023-04-29T09:38:07;6.68;;;4.80;;
46745;SDS011;32493;50.514;9.678;2023-04-29T09:40:31;9.95;;;4.57;;
46745;SDS011;32493;50.514;9.678;2023-04-29T09:43:00;6.57;;;4.13;;
46745;SDS011;32493;50.514;9.678;2023-04-29T09:45:07;7.75;;;3.83;;
46745;SDS011;32493;50.514;9.678;2023-04-29T09:47:13;10.63;;;4.70;;
46745;SDS011;32493;50.514;9.678;2023-04-29T09:49:21;6.63;;;4.10;;
46745;SDS011;32493;50.514;9.678;2023-04-29T09:51:29;6.18;;;4.22;;
46745;SDS011;32493;50.514;9.678;2023-04-29T09:53:55;8.57;;;4.60;;
46745;SDS011;32493;50.514;9.678;2023-04-29T09:56:00;9.70;;;5.00;;
46745;SDS011;32493;50.514;9.678;2023-04-29T09:58:11;6.87;;;4.53;;
46745;SDS011;32493;50.514;9.678;2023-04-29T10:00:38;6.85;;;4.45;;
46745;SDS011;32493;50.514;9.678;2023-04-29T10:02:45;6.25;;;4.47;;
46745;SDS011;32493;50.514;9.678;2023-04-29T10:04:53;6.43;;;4.40;;
46745;SDS011;32493;50.514;9.678;2023-04-29T10:07:00;5.95;;;4.20;;
46745;SDS011;32493;50.514;9.678;2023-04-29T10:09:06;5.72;;;4.55;;
46745;SDS011;32493;50.514;9.678;2023-04-29T10:11:15;7.03;;;4.78;;
46745;SDS011;32493;50.514;9.678;2023-04-29T10:13:28;7.57;;;4.47;;
46745;SDS011;32493;50.514;9.678;2023-04-29T10:15:36;6.65;;;4.32;;
46745;SDS011;32493;50.514;9.678;2023-04-29T10:17:53;6.10;;;4.53;;
46745;SDS011;32493;50.514;9.678;2023-04-29T10:20:03;6.25;;;4.55;;
46745;SDS011;32493;50.514;9.678;2023-04-29T10:22:13;6.18;;;3.88;;
46745;SDS011;32493;50.514;9.678;2023-04-29T10:24:27;5.28;;;3.03;;
46745;SDS011;32493;50.514;9.678;2023-04-29T10:26:33;3.78;;;2.75;;
46745;SDS011;32493;50.514;9.678;2023-04-29T10:28:42;3.28;;;2.45;;
46745;SDS011;32493;50.514;9.678;2023-04-29T10:30:50;3.42;;;2.03;;
46745;SDS011;32493;50.514;9.678;2023-04-29T10:32:59;5.00;;;2.53;;
46745;SDS011;32493;50.514;9.678;2023-04-29T10:35:07;3.00;;;2.25;;
46745;SDS011;32493;50.514;9.678;2023-04-29T10:37:15;4.80;;;1.98;;
46745;SDS011;32493;50.514;9.678;2023-04-29T10:39:22;3.45;;;2.25;;
46745;SDS011;32493;50.514;9.678;2023-04-29T10:41:41;3.42;;;2.65;;
46745;SDS011;32493;50.514;9.678;2023-04-29T10:43:52;3.80;;;2.83;;
46745;SDS011;32493;50.514;9.678;2023-04-29T10:48:24;2.72;;;2.25;;
46745;SDS011;32493;50.514;9.678;2023-04-29T10:50:30;2.90;;;2.10;;
46745;SDS011;32493;50.514;9.678;2023-04-29T10:52:50;2.85;;;2.22;;
46745;SDS011;32493;50.514;9.678;2023-04-29T10:55:01;2.95;;;2.10;;
46745;SDS011;32493;50.514;9.678;2023-04-29T10:57:19;3.78;;;2.78;;
46745;SDS011;32493;50.514;9.678;2023-04-29T11:01:59;3.72;;;2.70;;
46745;SDS011;32493;50.514;9.678;2023-04-29T11:04:06;3.80;;;2.90;;
46745;SDS011;32493;50.514;9.678;2023-04-29T11:06:11;3.13;;;2.58;;
46745;SDS011;32493;50.514;9.678;2023-04-29T11:08:19;5.00;;;2.50;;
46745;SDS011;32493;50.514;9.678;2023-04-29T11:10:34;4.28;;;2.70;;
46745;SDS011;32493;50.514;9.678;2023-04-29T11:12:41;4.30;;;2.70;;
46745;SDS011;32493;50.514;9.678;2023-04-29T11:14:50;4.25;;;2.67;;
46745;SDS011;32493;50.514;9.678;2023-04-29T11:17:03;3.05;;;2.22;;
46745;SDS011;32493;50.514;9.678;2023-04-29T11:19:13;3.22;;;2.60;;
46745;SDS011;32493;50.514;9.678;2023-04-29T11:21:19;3.83;;;2.42;;
46745;SDS011;32493;50.514;9.678;2023-04-29T11:23:26;3.38;;;1.95;;
46745;SDS011;32493;50.514;9.678;2023-04-29T11:25:32;3.22;;;2.50;;
46745;SDS011;32493;50.514;9.678;2023-04-29T11:27:41;4.40;;;2.40;;
46745;SDS011;32493;50.514;9.678;2023-04-29T11:29:52;3.83;;;2.17;;
46745;SDS011;32493;50.514;9.678;2023-04-29T11:32:00;3.70;;;2.58;;
46745;SDS011;32493;50.514;9.678;2023-04-29T11:34:10;4.07;;;2.67;;
46745;SDS011;32493;50.514;9.678;2023-04-29T11:36:18;4.70;;;2.70;;
46745;SDS011;32493;50.514;9.678;2023-04-29T11:38:23;2.80;;;2.40;;
46745;SDS011;32493;50.514;9.678;2023-04-29T11:40:28;3.92;;;2.70;;
46745;SDS011;32493;50.514;9.678;2023-04-29T11:44:46;3.80;;;2.90;;
46745;SDS011;32493;50.514;9.678;2023-04-29T11:47:01;3.53;;;2.53;;
46745;SDS011;32493;50.514;9.678;2023-04-29T11:49:06;3.55;;;2.58;;
46745;SDS011;32493;50.514;9.678;2023-04-29T11:51:11;3.35;;;2.33;;
46745;SDS011;32493;50.514;9.678;2023-04-29T11:53:18;6.55;;;2.90;;
46745;SDS011;32493;50.514;9.678;2023-04-29T11:55:28;4.32;;;3.03;;
46745;SDS011;32493;50.514;9.678;2023-04-29T11:57:33;3.15;;;2.78;;
46745;SDS011;32493;50.514;9.678;2023-04-29T11:59:40;4.68;;;3.10;;
46745;SDS011;32493;50.514;9.678;2023-04-29T12:01:51;4.53;;;3.03;;
46745;SDS011;32493;50.514;9.678;2023-04-29T12:03:57;3.10;;;2.50;;
46745;SDS011;32493;50.514;9.678;2023-04-29T12:06:05;3.90;;;2.80;;
46745;SDS011;32493;50.514;9.678;2023-04-29T12:08:11;4.53;;;2.65;;
46745;SDS011;32493;50.514;9.678;2023-04-29T12:10:18;4.88;;;3.40;;
46745;SDS011;32493;50.514;9.678;2023-04-29T12:12:26;5.82;;;3.08;;
46745;SDS011;32493;50.514;9.678;2023-04-29T12:14:35;3.78;;;2.83;;
46745;SDS011;32493;50.514;9.678;2023-04-29T12:16:44;4.03;;;3.08;;
46745;SDS011;32493;50.514;9.678;2023-04-29T12:18:53;4.50;;;2.45;;
46745;SDS011;32493;50.514;9.678;2023-04-29T12:21:00;4.45;;;3.00;;
46745;SDS011;32493;50.514;9.678;2023-04-29T12:23:11;2.80;;;2.17;;
46745;SDS011;32493;50.514;9.678;2023-04-29T12:25:18;3.80;;;2.45;;
46745;SDS011;32493;50.514;9.678;2023-04-29T12:27:29;3.75;;;2.47;;
46745;SDS011;32493;50.514;9.678;2023-04-29T12:29:35;2.80;;;2.40;;
46745;SDS011;32493;50.514;9.678;2023-04-29T12:31:41;3.17;;;2.50;;
46745;SDS011;32493;50.514;9.678;2023-04-29T12:33:55;3.22;;;2.35;;
46745;SDS011;32493;50.514;9.678;2023-04-29T12:36:00;3.40;;;2.58;;
46745;SDS011;32493;50.514;9.678;2023-04-29T12:38:06;2.67;;;2.03;;
46745;SDS011;32493;50.514;9.678;2023-04-29T12:40:18;3.45;;;2.28;;
46745;SDS011;32493;50.514;9.678;2023-04-29T12:42:30;3.60;;;2.67;;
46745;SDS011;32493;50.514;9.678;2023-04-29T12:44:40;3.55;;;2.63;;
46745;SDS011;32493;50.514;9.678;2023-04-29T12:46:50;3.08;;;2.00;;
46745;SDS011;32493;50.514;9.678;2023-04-29T12:49:01;2.55;;;2.17;;
46745;SDS011;32493;50.514;9.678;2023-04-29T12:51:07;4.55;;;2.10;;
46745;SDS011;32493;50.514;9.678;2023-04-29T12:53:13;4.13;;;2.10;;
46745;SDS011;32493;50.514;9.678;2023-04-29T12:55:18;2.72;;;1.92;;
46745;SDS011;32493;50.514;9.678;2023-04-29T12:57:26;2.40;;;1.90;;
46745;SDS011;32493;50.514;9.678;2023-04-29T12:59:32;4.47;;;2.13;;
46745;SDS011;32493;50.514;9.678;2023-04-29T13:01:38;3.05;;;2.22;;
46745;SDS011;32493;50.514;9.678;2023-04-29T13:03:46;6.03;;;2.38;;
46745;SDS011;32493;50.514;9.678;2023-04-29T13:05:55;5.55;;;2.67;;
46745;SDS011;32493;50.514;9.678;2023-04-29T13:08:00;3.03;;;2.15;;
46745;SDS011;32493;50.514;9.678;2023-04-29T13:10:07;4.63;;;2.50;;
46745;SDS011;32493;50.514;9.678;2023-04-29T13:12:17;4.75;;;3.00;;
46745;SDS011;32493;50.514;9.678;2023-04-29T13:14:23;4.70;;;3.00;;
46745;SDS011;32493;50.514;9.678;2023-04-29T13:16:30;5.63;;;3.65;;
46745;SDS011;32493;50.514;9.678;2023-04-29T13:18:42;5.07;;;3.58;;
46745;SDS011;32493;50.514;9.678;2023-04-29T13:21:07;5.97;;;3.75;;